Time;durP1;ratioP1;P1;durP2;ratioP2;P2;SDS_P1;SDS_P2;PMS_P1;PMS_P2;Temp;Humidity;BMP_temperature;BMP_pressure;BME280_temperature;BME280_humidity;BME280_pressure;Samples;Min_cycle;Max_cycle;Signal;HPM_P1;HPM_P2
2022/11/25 00:01:41;;;;;;;8.55;2.05;;;;;;;6.71;100.00;99647.03;12188333;19;20014;-82
2022/11/25 00:05:43;;;;;;;12.10;2.28;;;;;;;6.73;100.00;99637.53;12209580;19;20018;-81
2022/11/25 00:09:44;;;;;;;4.72;1.70;;;;;;;6.74;100.00;99636.44;12210125;19;20018;-83
2022/11/25 00:13:47;;;;;;;7.15;2.13;;;;;;;6.72;100.00;99638.59;12185987;19;20460;-82
2022/11/25 00:17:48;;;;;;;8.82;2.08;;;;;;;6.71;100.00;99619.66;12207830;19;20014;-83
2022/11/25 00:21:50;;;;;;;12.48;2.35;;;;;;;6.70;100.00;99624.28;12209645;19;20019;-82
2022/11/25 00:25:51;;;;;;;7.65;2.30;;;;;;;6.73;100.00;99621.09;12186566;19;20007;-81
2022/11/25 00:29:53;;;;;;;10.27;2.40;;;;;;;6.80;100.00;99619.09;12207828;19;20706;-81
2022/11/25 00:33:55;;;;;;;10.05;2.25;;;;;;;6.89;100.00;99613.31;12206385;19;20641;-83
2022/11/25 00:37:57;;;;;;;12.93;2.17;;;;;;;6.95;100.00;99615.97;12194847;19;20472;-82
2022/11/25 00:46:19;;;;;;;7.47;1.80;;;;;;;7.13;100.00;99628.78;12223803;19;20610;-83
2022/11/25 00:50:21;;;;;;;8.45;1.95;;;;;;;7.21;100.00;99625.72;12203228;19;20017;-81
2022/11/25 00:54:22;;;;;;;7.90;2.05;;;;;;;7.25;100.00;99635.16;12220431;19;20075;-83
2022/11/25 00:58:25;;;;;;;12.10;2.10;;;;;;;7.34;100.00;99619.22;12217374;19;20793;-82
2022/11/25 01:02:27;;;;;;;5.78;2.25;;;;;;;7.36;100.00;99614.34;12219405;19;20018;-81
2022/11/25 01:06:29;;;;;;;11.00;2.50;;;;;;;7.38;100.00;99625.09;12217232;19;20098;-83
2022/11/25 01:10:31;;;;;;;6.93;2.50;;;;;;;7.36;100.00;99616.25;12192990;19;20377;-83
2022/11/25 01:14:33;;;;;;;10.38;2.95;;;;;;;7.36;100.00;99619.00;12217788;19;20006;-82
2022/11/25 01:18:35;;;;;;;8.87;2.20;;;;;;;7.34;100.00;99621.13;12216596;19;20018;-82
2022/11/25 01:22:37;;;;;;;7.22;2.00;;;;;;;7.33;100.00;99627.69;12195830;19;20259;-82
2022/11/25 01:26:40;;;;;;;10.15;2.20;;;;;;;7.28;100.00;99623.72;12219959;19;20386;-82
2022/11/25 01:30:41;;;;;;;8.18;3.08;;;;;;;7.24;100.00;99633.47;12216641;19;20006;-82
2022/11/25 01:34:43;;;;;;;11.25;2.20;;;;;;;7.17;100.00;99634.63;12189071;19;20014;-83
2022/11/25 01:38:49;;;;;;;7.82;1.92;;;;;;;7.07;100.00;99627.81;12216799;19;20053;-82
2022/11/25 01:42:51;;;;;;;9.95;2.45;;;;;;;6.98;100.00;99634.66;12211346;19;20046;-81
2022/11/25 01:47:19;;;;;;;15.13;2.25;;;;;;;6.92;100.00;99637.50;12186948;19;20044;-82
2022/11/25 01:51:28;;;;;;;5.35;2.35;;;;;;;6.85;100.00;99637.59;12268279;19;20436;-78
2022/11/25 01:55:33;;;;;;;8.10;2.10;;;;;;;6.73;100.00;99651.22;12250615;19;20026;-80
2022/11/25 01:59:41;;;;;;;8.15;2.58;;;;;;;6.64;100.00;99649.03;12223557;19;20011;-83
2022/11/25 02:03:47;;;;;;;12.88;3.10;;;;;;;6.57;100.00;99641.72;12216822;19;20102;-82
2022/11/25 02:07:52;;;;;;;13.88;3.80;;;;;;;6.53;100.00;99640.47;12193846;19;20029;-82
2022/11/25 02:11:55;;;;;;;9.45;3.75;;;;;;;6.47;100.00;99641.41;12216799;19;20496;-82
2022/11/25 02:15:57;;;;;;;17.13;3.70;;;;;;;6.45;100.00;99643.50;12215050;19;20102;-83
2022/11/25 02:20:04;;;;;;;12.02;3.65;;;;;;;6.47;100.00;99635.09;12194163;19;20133;-83
2022/11/25 02:24:17;;;;;;;10.38;4.03;;;;;;;6.50;100.00;99632.72;12213381;19;20492;-83
2022/11/25 02:28:25;;;;;;;12.38;4.65;;;;;;;6.52;100.00;99638.00;12216497;19;20009;-82
2022/11/25 02:32:27;;;;;;;11.00;3.95;;;;;;;6.53;100.00;99640.47;12195406;19;20029;-83
2022/11/25 02:36:28;;;;;;;13.93;3.90;;;;;;;6.53;100.00;99636.91;12214155;19;20021;-82
2022/11/25 02:40:35;;;;;;;12.23;3.70;;;;;;;6.53;100.00;99643.22;12195695;19;20074;-81
2022/11/25 02:44:36;;;;;;;10.43;3.92;;;;;;;6.54;100.00;99638.56;12216215;19;20010;-82
2022/11/25 02:48:40;;;;;;;13.52;3.25;;;;;;;6.55;100.00;99637.53;12215658;19;20007;-82
2022/11/25 02:53:02;;;;;;;9.57;3.35;;;;;;;6.53;100.00;99637.75;12194464;19;20851;-82
2022/11/25 02:57:03;;;;;;;13.68;3.70;;;;;;;6.54;100.00;99641.31;12235871;19;20011;-80
2022/11/25 03:01:08;;;;;;;17.27;4.88;;;;;;;6.47;100.00;99635.09;12263715;19;20015;-81
2022/11/25 03:05:10;;;;;;;14.90;4.47;;;;;;;6.43;100.00;99628.41;12200984;19;20022;-81
2022/11/25 03:09:12;;;;;;;11.43;4.17;;;;;;;6.45;100.00;99629.00;12215705;19;20394;-83
2022/11/25 03:13:14;;;;;;;21.13;4.95;;;;;;;6.46;100.00;99623.31;12216529;19;20015;-83
2022/11/25 03:17:16;;;;;;;21.10;5.15;;;;;;;6.47;100.00;99624.13;12194203;19;20006;-82
2022/11/25 03:21:18;;;;;;;11.15;5.10;;;;;;;6.45;100.00;99616.16;12216062;19;20019;-84
2022/11/25 03:25:20;;;;;;;11.15;5.72;;;;;;;6.44;100.00;99611.75;12214452;19;20011;-82
2022/11/25 03:29:23;;;;;;;14.13;5.03;;;;;;;6.46;100.00;99606.06;12192848;19;20015;-80
2022/11/25 03:33:26;;;;;;;5.32;2.97;;;;;;;6.45;100.00;99598.88;12208119;19;20090;-82
2022/11/25 03:37:29;;;;;;;13.63;5.15;;;;;;;6.47;100.00;99603.06;12194952;19;20027;-83
2022/11/25 03:41:31;;;;;;;7.53;3.63;;;;;;;6.46;100.00;99606.88;12211358;19;20028;-83
2022/11/25 03:45:33;;;;;;;10.95;3.83;;;;;;;6.43;100.00;99606.50;12212146;19;20384;-83
2022/11/25 03:49:41;;;;;;;11.63;4.32;;;;;;;6.39;100.00;99608.84;12185935;19;20365;-82
2022/11/25 03:53:43;;;;;;;10.02;4.20;;;;;;;6.37;100.00;99589.09;12205687;19;20014;-83
2022/11/25 03:57:45;;;;;;;12.70;4.30;;;;;;;6.36;100.00;99593.72;12208061;19;20026;-83
2022/11/25 04:01:47;;;;;;;10.52;4.38;;;;;;;6.40;100.00;99591.38;12193845;19;20101;-83
2022/11/25 04:05:48;;;;;;;11.63;4.35;;;;;;;6.42;100.00;99608.38;12210264;19;20010;-81
2022/11/25 04:09:50;;;;;;;12.32;4.53;;;;;;;6.32;100.00;99616.31;12209205;19;20090;-83
2022/11/25 04:13:56;;;;;;;11.70;5.63;;;;;;;6.19;100.00;99628.22;12186447;19;20480;-83
2022/11/25 04:17:58;;;;;;;8.57;3.88;;;;;;;6.12;100.00;99628.28;12207816;19;20586;-83
2022/11/25 04:22:00;;;;;;;13.35;4.57;;;;;;;6.12;100.00;99619.22;12207416;19;20014;-83
2022/11/25 04:26:04;;;;;;;10.65;4.85;;;;;;;6.16;100.00;99626.78;12187664;19;20035;-82
2022/11/25 04:30:11;;;;;;;10.98;4.65;;;;;;;6.22;100.00;99630.50;12209646;19;20490;-83
2022/11/25 04:34:15;;;;;;;8.65;4.43;;;;;;;6.27;100.00;99613.41;12206381;19;20356;-83
2022/11/25 04:38:20;;;;;;;12.85;5.18;;;;;;;6.34;100.00;99597.75;12182398;19;20699;-84
2022/11/25 04:42:33;;;;;;;;;;;;;;;6.37;100.00;99606.34;12205546;19;20022;-81
2022/11/25 04:46:40;;;;;;;11.60;4.97;;;;;;;6.38;100.00;99598.97;12183939;19;19935;-83
2022/11/25 04:50:41;;;;;;;19.13;5.45;;;;;;;6.36;100.00;99612.03;12205937;19;20034;-84
2022/11/25 04:54:46;;;;;;;15.13;5.55;;;;;;;6.32;100.00;99617.13;12204673;19;20026;-82
2022/11/25 05:03:12;;;;;;;10.07;5.05;;;;;;;6.34;100.00;99603.25;12200971;19;20043;-82
2022/11/25 05:07:16;;;;;;;13.75;6.15;;;;;;;6.29;100.00;99603.06;12203392;19;20111;-81
2022/11/25 05:11:20;;;;;;;12.77;5.53;;;;;;;6.22;100.00;99603.16;12181706;19;20011;-82
2022/11/25 05:15:23;;;;;;;;;;;;;;;6.13;100.00;99601.78;12203888;19;20010;-83
2022/11/25 05:19:27;;;;;;;11.88;5.07;;;;;;;6.01;100.00;99601.69;12202044;19;19928;-83
2022/11/25 05:23:30;;;;;;;14.38;5.38;;;;;;;5.94;100.00;99609.09;12192373;19;20007;-82
2022/11/25 05:27:33;;;;;;;12.45;5.20;;;;;;;5.91;100.00;99604.88;12214884;19;19999;-82
2022/11/25 05:31:40;;;;;;;15.60;5.82;;;;;;;5.93;100.00;99594.59;12193724;19;20014;-83
2022/11/25 05:35:42;;;;;;;12.05;5.00;;;;;;;5.96;100.00;99590.56;12211589;19;20019;-82
2022/11/25 05:39:43;;;;;;;11.88;5.13;;;;;;;6.02;100.00;99594.31;12217156;19;20010;-83
2022/11/25 05:44:04;;;;;;;10.90;5.10;;;;;;;6.06;100.00;99606.47;12191881;19;20479;-82
2022/11/25 05:48:07;;;;;;;11.07;4.75;;;;;;;6.05;100.00;99621.22;12215514;19;20010;-82
2022/11/25 05:52:09;;;;;;;12.93;3.83;;;;;;;6.02;100.00;99629.88;12211620;19;20380;-81
2022/11/25 05:56:19;;;;;;;15.82;5.15;;;;;;;6.02;100.00;99636.16;12189377;19;20010;-82
2022/11/25 06:00:37;;;;;;;11.23;5.30;;;;;;;6.05;100.00;99643.94;12212576;19;20026;-83
2022/11/25 06:04:43;;;;;;;14.68;4.97;;;;;;;6.10;100.00;99646.84;12188763;19;20007;-82
2022/11/25 06:08:45;;;;;;;11.77;5.10;;;;;;;6.16;100.00;99656.03;12209773;19;20031;-83
2022/11/25 06:12:47;;;;;;;10.90;4.83;;;;;;;6.23;100.00;99654.06;12211409;19;20018;-81
2022/11/25 06:16:49;;;;;;;9.05;4.47;;;;;;;6.28;100.00;99662.44;12191095;19;19996;-82
2022/11/25 06:20:58;;;;;;;13.73;4.90;;;;;;;6.32;100.00;99669.13;12209649;19;20010;-82
2022/11/25 06:25:01;;;;;;;12.82;4.50;;;;;;;6.38;100.00;99673.69;12211910;19;20010;-83
2022/11/25 06:29:08;;;;;;;11.35;4.40;;;;;;;6.42;100.00;99673.25;12190947;19;20006;-84
2022/11/25 06:33:10;;;;;;;9.75;3.00;;;;;;;6.45;100.00;99673.63;12208459;19;20003;-81
2022/11/25 06:37:14;;;;;;;9.02;3.80;;;;;;;6.50;100.00;99668.31;12207815;19;20050;-81
2022/11/25 06:41:16;;;;;;;8.98;3.42;;;;;;;6.53;100.00;99683.44;12188368;19;20044;-79
2022/11/25 06:45:18;;;;;;;10.70;3.67;;;;;;;6.60;100.00;99678.72;12210958;19;20007;-83
2022/11/25 06:49:20;;;;;;;9.82;4.25;;;;;;;6.68;100.00;99683.91;12212687;19;20010;-81
2022/11/25 06:53:21;;;;;;;9.95;3.30;;;;;;;6.77;100.00;99695.41;12189995;19;20035;-82
2022/11/25 06:57:24;;;;;;;;;;;;;;;6.84;100.00;99702.50;12208932;19;20011;-81
2022/11/25 07:01:28;;;;;;;9.00;3.65;;;;;;;6.84;100.00;99702.50;12212061;19;19930;-81
2022/11/25 07:05:30;;;;;;;11.10;3.38;;;;;;;6.91;100.00;99699.69;12192983;19;20398;-82
2022/11/25 07:09:32;;;;;;;9.23;3.83;;;;;;;7.02;100.00;99695.31;12218431;19;20346;-83
2022/11/25 07:13:33;;;;;;;5.80;3.00;;;;;;;7.13;100.00;99694.53;12191891;19;20010;-80
2022/11/25 07:17:35;;;;;;;10.25;3.90;;;;;;;7.21;100.00;99702.47;12209730;19;20031;-84
2022/11/25 07:21:37;;;;;;;10.32;3.50;;;;;;;7.31;100.00;99716.44;12209971;19;20010;-83
2022/11/25 07:25:38;;;;;;;10.43;2.63;;;;;;;7.44;100.00;99718.19;12189479;19;20047;-82
2022/11/25 07:29:40;;;;;;;5.85;2.50;;;;;;;7.57;100.00;99719.06;12209234;19;20010;-80
2022/11/25 07:34:22;;;;;;;6.90;2.55;;;;;;;7.71;100.00;99717.81;12209975;19;20036;-81
2022/11/25 07:38:49;;;;;;;6.78;2.50;;;;;;;7.85;100.00;99718.44;12187460;19;20003;-82
2022/11/25 07:47:56;;;;;;;5.18;2.40;;;;;;;8.08;100.00;99707.53;12205957;19;20022;-84
2022/11/25 07:52:04;;;;;;;7.07;2.45;;;;;;;8.19;100.00;99714.94;12232342;19;20014;-80
2022/11/25 07:56:07;;;;;;;5.88;2.03;;;;;;;8.26;100.00;99720.31;12244447;19;20014;-80
2022/11/25 08:00:10;;;;;;;4.93;1.88;;;;;;;8.35;100.00;99723.53;12228563;19;20488;-84
2022/11/25 08:04:13;;;;;;;8.90;1.77;;;;;;;8.48;100.00;99717.00;12216722;19;20491;-84
2022/11/25 08:08:21;;;;;;;8.55;2.50;;;;;;;8.58;100.00;99729.09;12193686;19;20490;-83
2022/11/25 08:12:23;;;;;;;5.72;2.20;;;;;;;8.72;100.00;99726.13;12215750;19;20728;-85
2022/11/25 08:16:28;;;;;;;9.85;2.28;;;;;;;8.84;100.00;99727.75;12252835;19;20015;-80
2022/11/25 08:20:30;;;;;;;5.57;2.25;;;;;;;8.95;100.00;99723.31;12245343;19;20006;-80
2022/11/25 08:24:32;;;;;;;5.75;1.30;;;;;;;8.99;100.00;99726.44;12222849;19;20019;-83
2022/11/25 08:28:34;;;;;;;4.40;2.15;;;;;;;9.04;100.00;99732.88;12189701;19;20023;-83
2022/11/25 08:32:37;;;;;;;7.57;1.67;;;;;;;9.13;100.00;99728.69;12209474;19;20010;-84
2022/11/25 08:36:39;;;;;;;7.72;1.80;;;;;;;9.27;100.00;99731.97;12210430;19;20588;-84
2022/11/25 08:40:48;;;;;;;6.25;1.63;;;;;;;9.39;100.00;99737.44;12187635;19;20011;-83
2022/11/25 08:44:54;;;;;;;6.85;2.60;;;;;;;9.49;100.00;99734.09;12208622;19;20039;-82
2022/11/25 08:48:56;;;;;;;7.32;2.00;;;;;;;9.53;100.00;99738.84;12204915;19;20017;-84
2022/11/25 08:53:01;;;;;;;5.60;1.88;;;;;;;9.59;100.00;99734.28;12179484;19;20034;-83
2022/11/25 08:57:03;;;;;;;4.93;1.40;;;;;;;9.66;100.00;99748.69;12183643;19;21897;-83
2022/11/25 09:01:08;;;;;;;5.65;2.00;;;;;;;9.72;100.00;99755.16;12222704;19;20472;-83
2022/11/25 09:05:12;;;;;;;6.07;1.92;;;;;;;9.76;100.00;99762.69;12198340;19;20033;-83
2022/11/25 09:09:14;;;;;;;5.20;2.30;;;;;;;9.80;100.00;99763.00;12220298;19;20038;-83
2022/11/25 09:13:16;;;;;;;7.78;2.17;;;;;;;9.75;100.00;99771.16;12222689;19;20025;-83
2022/11/25 09:17:19;;;;;;;7.55;2.38;;;;;;;9.73;100.00;99773.34;12198584;19;20095;-81
2022/11/25 09:21:20;;;;;;;5.50;2.42;;;;;;;9.77;100.00;99775.34;12222650;19;20014;-81
2022/11/25 09:25:22;;;;;;;4.30;2.58;;;;;;;9.82;100.00;99789.22;12220442;19;20011;-85
2022/11/25 09:29:25;;;;;;;9.30;3.00;;;;;;;9.77;100.00;99791.84;12200879;19;20034;-82
2022/11/25 09:33:26;;;;;;;6.75;2.92;;;;;;;9.77;100.00;99796.53;12219528;19;20076;-82
2022/11/25 09:37:29;;;;;;;;;;;;;;;9.77;100.00;99807.53;12219287;19;20031;-80
2022/11/25 09:46:40;;;;;;;7.35;2.90;;;;;;;9.92;100.00;99815.25;12221627;19;20011;-82
2022/11/25 09:50:52;;;;;;;11.95;3.13;;;;;;;9.94;100.00;99830.44;12197044;19;20011;-81
2022/11/25 09:55:10;;;;;;;10.63;3.20;;;;;;;9.94;100.00;99827.69;12216044;19;20471;-84
2022/11/25 09:59:18;;;;;;;8.27;3.22;;;;;;;9.92;100.00;99832.59;12195052;19;20014;-82
2022/11/25 10:03:40;;;;;;;8.50;3.60;;;;;;;9.88;100.00;99831.44;12218083;19;20030;-83
2022/11/25 10:07:50;;;;;;;9.82;3.30;;;;;;;9.88;100.00;99828.69;12190395;19;20039;-81
2022/11/25 10:12:00;;;;;;;8.98;3.28;;;;;;;9.87;100.00;99843.50;12217993;19;20011;-81
2022/11/25 10:16:06;;;;;;;10.25;3.72;;;;;;;9.87;100.00;99856.44;12217989;19;20086;-82
2022/11/25 10:20:23;;;;;;;10.20;3.90;;;;;;;9.87;100.00;99846.25;12195663;19;20421;-82
2022/11/25 10:24:25;;;;;;;11.60;4.00;;;;;;;9.92;100.00;99860.13;12219908;19;20055;-83
2022/11/25 10:28:31;;;;;;;11.55;4.03;;;;;;;10.04;100.00;99855.41;12221223;19;20006;-84
2022/11/25 10:32:43;;;;;;;8.43;3.75;;;;;;;10.04;100.00;99852.66;12200691;19;20039;-83
2022/11/25 10:36:48;;;;;;;10.80;3.23;;;;;;;10.02;100.00;99863.09;12219996;19;20006;-83
2022/11/25 10:40:51;;;;;;;10.30;4.20;;;;;;;10.04;100.00;99863.66;12210865;19;20247;-84
2022/11/25 10:44:55;;;;;;;8.23;3.45;;;;;;;10.09;100.00;99870.38;12241362;19;20021;-81
2022/11/25 10:49:06;;;;;;;7.75;3.40;;;;;;;10.15;100.00;99864.72;12235182;19;20007;-82
2022/11/25 10:53:16;;;;;;;7.82;3.60;;;;;;;10.39;100.00;99875.66;12216665;19;20010;-80
2022/11/25 10:57:19;;;;;;;10.43;3.47;;;;;;;10.53;100.00;99870.66;12247975;19;20044;-83
2022/11/25 11:06:36;;;;;;;7.63;3.55;;;;;;;10.66;100.00;99871.19;12220538;19;20012;-84
2022/11/25 11:10:39;;;;;;;7.03;3.63;;;;;;;10.74;100.00;99872.72;12214638;19;20006;-83
2022/11/25 11:14:41;;;;;;;7.90;3.83;;;;;;;10.88;100.00;99878.72;12218768;19;20003;-83
2022/11/25 11:18:42;;;;;;;11.40;3.78;;;;;;;11.01;100.00;99883.09;12215702;19;20015;-82
2022/11/25 11:22:53;;;;;;;8.35;4.43;;;;;;;11.05;100.00;99887.00;12194720;19;20290;-84
2022/11/25 11:27:18;;;;;;;10.77;4.22;;;;;;;10.86;100.00;99876.22;12215903;19;20017;-83
2022/11/25 11:31:27;;;;;;;11.68;3.90;;;;;;;10.61;100.00;99878.53;12216572;19;20020;-83
2022/11/25 11:35:54;;;;;;;9.55;4.15;;;;;;;10.42;100.00;99876.00;12194809;19;20358;-80
2022/11/25 11:40:08;;;;;;;12.70;5.22;;;;;;;10.54;100.00;99884.22;12217354;19;20002;-83
2022/11/25 11:44:47;;;;;;;10.55;4.03;;;;;;;10.67;100.00;99880.28;12193596;19;20103;-82
2022/11/25 11:49:25;;;;;;;9.30;3.90;;;;;;;10.92;100.00;99889.00;12214041;19;20010;-83
2022/11/25 11:53:48;;;;;;;7.10;3.78;;;;;;;11.24;100.00;99884.81;12192525;19;20034;-82
2022/11/25 11:58:03;;;;;;;15.27;4.80;;;;;;;11.38;100.00;99892.47;12213615;19;20019;-82
2022/11/25 12:02:19;;;;;;;12.10;4.03;;;;;;;11.36;100.00;99902.09;12192169;19;20069;-83
2022/11/25 12:06:24;;;;;;;10.90;4.35;;;;;;;11.43;100.00;99908.28;12213386;19;20031;-84
2022/11/25 12:10:39;;;;;;;10.48;3.92;;;;;;;11.53;100.00;99910.34;12211833;19;20010;-82
2022/11/25 12:14:45;;;;;;;9.52;4.22;;;;;;;11.48;100.00;99907.50;12194031;19;20013;-83
2022/11/25 12:19:05;;;;;;;8.45;4.65;;;;;;;11.51;100.00;99912.53;12215325;19;20112;-85
2022/11/25 12:23:48;;;;;;;9.05;4.35;;;;;;;11.58;100.00;99922.31;12193590;19;20091;-82
2022/11/25 12:27:50;;;;;;;;;;;;;;;11.48;100.00;99924.06;12219530;19;20011;-81
2022/11/25 12:32:08;;;;;;;8.15;4.30;;;;;;;11.47;100.00;99926.00;12217866;19;20053;-84
2022/11/25 12:36:13;;;;;;;7.53;4.05;;;;;;;11.37;100.00;99925.84;12212912;19;20010;-84
2022/11/25 12:40:40;;;;;;;14.88;4.70;;;;;;;11.37;100.00;99931.38;12212665;19;20031;-83
2022/11/25 12:45:04;;;;;;;10.13;4.20;;;;;;;11.23;100.00;99932.78;12188655;19;20014;-83
2022/11/25 12:49:17;;;;;;;13.35;4.78;;;;;;;11.05;100.00;99939.41;12212169;19;20031;-82
2022/11/25 12:53:34;;;;;;;8.50;5.22;;;;;;;10.98;100.00;99938.72;12231107;19;20027;-81
2022/11/25 13:03:08;;;;;;;8.10;4.40;;;;;;;10.96;100.00;99961.03;12215937;19;20014;-84
2022/11/25 13:07:25;;;;;;;9.27;4.93;;;;;;;11.06;100.00;99965.88;12214027;19;20022;-83
2022/11/25 13:12:03;;;;;;;9.20;4.13;;;;;;;11.10;100.00;99967.06;12188080;19;20018;-84
2022/11/25 13:16:07;;;;;;;8.60;4.20;;;;;;;11.16;100.00;99975.16;12216676;19;20011;-84
2022/11/25 13:20:28;;;;;;;8.80;4.18;;;;;;;11.20;100.00;99983.78;12189602;19;20071;-82
2022/11/25 13:24:38;;;;;;;11.82;4.40;;;;;;;11.28;100.00;99990.81;12212150;19;20085;-83
2022/11/25 13:28:40;;;;;;;12.45;4.78;;;;;;;11.24;100.00;99992.38;12192886;19;20471;-83
2022/11/25 13:32:41;;;;;;;10.60;4.50;;;;;;;11.23;100.00;99999.00;12212829;19;20018;-84
2022/11/25 13:36:48;;;;;;;9.38;4.18;;;;;;;11.21;100.00;99996.47;12212135;19;20011;-81
2022/11/25 13:41:02;;;;;;;10.93;4.60;;;;;;;11.27;100.00;100017.53;12190110;19;20007;-82
2022/11/25 13:45:25;;;;;;;8.18;3.95;;;;;;;11.36;100.00;100015.22;12217795;19;20027;-83
2022/11/25 13:49:51;;;;;;;11.75;4.57;;;;;;;11.53;100.00;100021.56;12225170;19;20053;-82
2022/11/25 13:54:16;;;;;;;11.40;4.15;;;;;;;11.59;100.00;100020.56;12201715;19;20010;-82
2022/11/25 13:58:23;;;;;;;11.13;4.10;;;;;;;11.43;100.00;100023.34;12219593;19;20034;-82
2022/11/25 14:02:27;;;;;;;9.32;4.28;;;;;;;11.22;100.00;100036.78;12199549;19;20011;-84
2022/11/25 14:06:41;;;;;;;11.57;4.10;;;;;;;11.08;100.00;100038.16;12226321;19;20013;-83
2022/11/25 14:11:04;;;;;;;11.75;4.20;;;;;;;10.97;100.00;100048.16;12198316;19;20035;-81
2022/11/25 14:15:43;;;;;;;10.82;4.25;;;;;;;10.90;100.00;100058.50;12214689;19;20030;-83
2022/11/25 14:20:16;;;;;;;10.85;4.22;;;;;;;10.85;100.00;100052.88;12197687;19;20010;-82
2022/11/25 14:24:53;;;;;;;13.35;4.68;;;;;;;10.77;100.00;100051.38;12271764;19;20015;-80
2022/11/25 14:29:22;;;;;;;9.63;4.68;;;;;;;10.67;100.00;100065.78;12237162;19;20026;-83
2022/11/25 14:33:41;;;;;;;14.10;7.70;;;;;;;10.58;100.00;100066.41;12232885;19;20014;-83
2022/11/25 14:37:45;;;;;;;12.55;5.47;;;;;;;10.56;100.00;100069.41;12200523;19;20085;-82
2022/11/25 14:42:08;;;;;;;11.48;5.03;;;;;;;10.61;100.00;100072.25;12222400;19;20015;-83
2022/11/25 14:46:28;;;;;;;10.90;5.03;;;;;;;10.69;100.00;100085.66;12222916;19;20038;-82
2022/11/25 14:50:29;;;;;;;11.60;4.95;;;;;;;10.77;100.00;100091.88;12199809;19;20015;-83
2022/11/25 14:54:41;;;;;;;9.60;5.30;;;;;;;10.79;100.00;100086.94;12218003;19;20006;-82
2022/11/25 14:58:48;;;;;;;15.15;5.50;;;;;;;10.81;100.00;100099.41;12194425;19;20006;-82
2022/11/25 15:03:01;;;;;;;17.10;6.50;;;;;;;10.80;100.00;100102.44;12217216;19;20010;-83
2022/11/25 15:07:18;;;;;;;16.45;6.07;;;;;;;10.79;100.00;100109.00;12218972;19;20017;-82
2022/11/25 15:11:24;;;;;;;11.73;4.68;;;;;;;10.76;100.00;100110.31;12193646;19;20010;-82
2022/11/25 15:15:26;;;;;;;12.18;6.22;;;;;;;10.71;100.00;100111.06;12213490;19;20390;-83
2022/11/25 15:19:33;;;;;;;14.82;6.18;;;;;;;10.66;100.00;100107.38;12215731;19;20007;-82
2022/11/25 15:23:36;;;;;;;11.95;4.72;;;;;;;10.61;100.00;100112.75;12196298;19;20010;-82
2022/11/25 15:27:48;;;;;;;13.57;6.30;;;;;;;10.55;100.00;100124.75;12220072;19;20003;-83
2022/11/25 15:31:52;;;;;;;10.68;4.90;;;;;;;10.43;100.00;100120.09;12196439;19;20038;-82
2022/11/25 15:35:54;;;;;;;8.70;4.82;;;;;;;10.33;100.00;100124.56;12216106;19;20032;-82
2022/11/25 15:40:47;;;;;;;16.67;4.75;;;;;;;10.23;100.00;100127.84;12219331;19;20027;-83
2022/11/25 15:44:59;;;;;;;11.00;4.90;;;;;;;10.15;100.00;100136.50;12192056;19;20828;-84
2022/11/25 15:49:16;;;;;;;11.00;4.50;;;;;;;10.09;100.00;100149.31;12211333;19;20015;-83
2022/11/25 15:53:25;;;;;;;15.70;4.57;;;;;;;10.04;100.00;100149.19;12189310;19;20074;-83
2022/11/25 15:57:35;;;;;;;10.93;4.88;;;;;;;9.96;100.00;100152.25;12213773;19;19999;-82
2022/11/25 16:01:37;;;;;;;14.60;4.82;;;;;;;9.89;100.00;100157.06;12193888;19;20010;-83
2022/11/25 16:05:55;;;;;;;9.32;4.38;;;;;;;9.88;100.00;100152.63;12212099;19;20035;-82
2022/11/25 16:09:56;;;;;;;11.52;4.97;;;;;;;9.88;100.00;100158.97;12215892;19;20027;-83
2022/11/25 16:14:18;;;;;;;15.30;5.05;;;;;;;9.91;100.00;100161.25;12185925;19;20101;-84
2022/11/25 16:18:29;;;;;;;11.77;5.35;;;;;;;9.94;100.00;100163.53;12211094;19;20014;-82
2022/11/25 16:22:41;;;;;;;12.02;5.80;;;;;;;9.95;100.00;100178.13;12194191;19;20353;-82
2022/11/25 16:27:20;;;;;;;13.98;6.20;;;;;;;9.94;100.00;100169.03;12214845;19;20090;-81
2022/11/25 16:31:22;;;;;;;16.38;8.30;;;;;;;9.98;100.00;100172.97;12210418;19;20011;-82
2022/11/25 16:35:24;;;;;;;12.37;6.70;;;;;;;9.98;100.00;100175.75;12190352;19;20010;-82
2022/11/25 16:39:25;;;;;;;14.38;5.32;;;;;;;10.00;100.00;100176.34;12212789;19;20031;-83
2022/11/25 16:43:27;;;;;;;11.02;4.55;;;;;;;9.96;100.00;100183.38;12209672;19;20050;-83
2022/11/25 16:47:29;;;;;;;9.60;4.53;;;;;;;9.90;100.00;100186.25;12188597;19;20011;-83
2022/11/25 16:51:30;;;;;;;11.40;5.03;;;;;;;9.86;100.00;100201.56;12210437;19;20767;-83
2022/11/25 16:55:33;;;;;;;11.00;5.60;;;;;;;9.81;100.00;100210.53;12212972;19;20035;-83
2022/11/25 16:59:41;;;;;;;15.48;4.88;;;;;;;9.75;100.00;100211.47;12186419;19;20492;-82
2022/11/25 17:03:43;;;;;;;13.90;5.35;;;;;;;9.69;100.00;100223.41;12211175;19;20049;-81
2022/11/25 17:07:45;;;;;;;14.00;5.30;;;;;;;9.59;100.00;100224.81;12185614;19;20038;-83
2022/11/25 17:11:53;;;;;;;15.32;6.72;;;;;;;9.52;100.00;100231.50;12209596;19;20033;-82
2022/11/25 17:15:55;;;;;;;12.63;6.60;;;;;;;9.49;100.00;100242.97;12203927;19;20051;-83
2022/11/25 17:19:56;;;;;;;15.93;5.38;;;;;;;9.48;100.00;100238.53;12194310;19;20078;-82
2022/11/25 17:24:01;;;;;;;14.73;5.15;;;;;;;9.47;100.00;100243.19;12218795;19;20003;-83
2022/11/25 17:28:03;;;;;;;11.88;4.38;;;;;;;9.45;100.00;100247.25;12221157;19;20095;-82
2022/11/25 17:32:05;;;;;;;14.93;4.72;;;;;;;9.42;100.00;100247.69;12198864;19;20014;-83
2022/11/25 17:36:09;;;;;;;12.23;4.87;;;;;;;9.41;100.00;100259.78;12220257;19;20018;-82
2022/11/25 17:40:12;;;;;;;12.07;4.20;;;;;;;9.42;100.00;100267.78;12220355;19;20417;-82
2022/11/25 17:44:23;;;;;;;16.48;5.53;;;;;;;9.39;100.00;100275.66;12197519;19;20010;-83
2022/11/25 17:48:25;;;;;;;8.80;5.03;;;;;;;9.38;100.00;100282.25;12240862;19;20039;-81
2022/11/25 17:52:27;;;;;;;12.37;5.57;;;;;;;9.40;100.00;100289.22;12272071;19;20018;-81
2022/11/25 17:56:31;;;;;;;11.35;5.20;;;;;;;9.45;100.00;100294.00;12210275;19;20010;-83
2022/11/25 18:00:33;;;;;;;16.92;6.18;;;;;;;9.51;100.00;100304.91;12224493;19;20010;-84
2022/11/25 18:04:37;;;;;;;14.57;6.13;;;;;;;9.57;100.00;100306.75;12211237;19;20003;-82
2022/11/25 18:08:39;;;;;;;12.98;5.50;;;;;;;9.65;100.00;100321.28;12223296;19;20007;-83
2022/11/25 18:12:43;;;;;;;13.07;5.20;;;;;;;9.73;100.00;100320.97;12222163;19;20014;-83
2022/11/25 18:16:45;;;;;;;10.15;4.45;;;;;;;9.77;100.00;100324.91;12193617;19;20059;-82
2022/11/25 18:20:47;;;;;;;11.05;4.13;;;;;;;9.81;100.00;100331.63;12218963;19;20082;-83
2022/11/25 18:24:49;;;;;;;14.53;5.17;;;;;;;9.86;100.00;100341.94;12220791;19;20010;-83
2022/11/25 18:28:51;;;;;;;13.10;4.88;;;;;;;9.90;100.00;100344.00;12199642;19;20002;-82
2022/11/25 18:32:53;;;;;;;11.35;5.40;;;;;;;9.93;100.00;100350.94;12219793;19;20778;-83
2022/11/25 18:36:54;;;;;;;12.47;5.33;;;;;;;9.95;100.00;100354.31;12217724;19;20063;-82
2022/11/25 18:40:56;;;;;;;17.35;5.13;;;;;;;9.96;100.00;100362.34;12197997;19;20384;-83
2022/11/25 18:44:58;;;;;;;16.10;5.50;;;;;;;10.02;100.00;100375.19;12216987;19;20011;-81
2022/11/25 18:49:00;;;;;;;13.43;5.20;;;;;;;10.10;100.00;100381.44;12219772;19;20010;-83
2022/11/25 18:53:01;;;;;;;15.25;5.10;;;;;;;10.12;100.00;100390.31;12196053;19;20373;-84
2022/11/25 18:57:03;;;;;;;19.35;6.50;;;;;;;10.11;100.00;100392.19;12216264;19;20591;-83
2022/11/25 19:01:11;;;;;;;16.27;5.65;;;;;;;10.14;100.00;100394.53;12214057;19;20019;-83
2022/11/25 19:05:14;;;;;;;10.40;4.25;;;;;;;10.16;100.00;100405.28;12194769;19;20010;-83
2022/11/25 19:09:16;;;;;;;13.25;4.70;;;;;;;10.18;100.00;100414.16;12218265;19;20501;-83
2022/11/25 19:13:28;;;;;;;13.88;4.82;;;;;;;10.20;100.00;100423.88;12219771;19;20034;-83
2022/11/25 19:17:30;;;;;;;13.00;5.43;;;;;;;10.19;100.00;100427.69;12188869;19;20007;-82
2022/11/25 19:21:32;;;;;;;11.80;4.63;;;;;;;10.19;100.00;100432.38;12215715;19;20042;-82
2022/11/25 19:25:34;;;;;;;18.60;5.33;;;;;;;10.18;100.00;100438.97;12216492;19;20023;-83